• Join FlightAware (Why Join?)
  • Login
  • US Flag 
09:46PM EDT


 

Airport Tracker/Info


-or-


 

Live Flight TrackerFlight Track Log ✈ PVL5700 ✈ 11-May-2013 ✈ CYKL - CYYR

Flight Track Log - Related Links

Times and Time Zones

All times are in EDT time to prevent confusion due to time zone crossing. See the PVL5700 flight status page for this flight to view local times or setup timezone preferences in your user account.

Time Position Orientation Groundspeed Altitude Reporting Facility
EDT Latitude Longitude Course Direction KTS MPH feet Rate Location/Type
01:38PM 54.5778 -65.7104 110° East  Level FlightAware Approximate
01:39PM 54.5542 -65.6023 111° Southeast  Level FlightAware Approximate
01:40PM 54.5293 -65.4951 112° Southeast  Level FlightAware Approximate
01:41PM 54.5042 -65.3882 112° Southeast  Level FlightAware Approximate
01:42PM 54.4787 -65.2816 113° Southeast  Level FlightAware Approximate
01:43PM 54.4555 -65.1736 108° East  Level FlightAware Approximate
01:44PM 54.4350 -65.0640 108° East  Level FlightAware Approximate
01:45PM 54.4141 -64.9547 110° East  Level FlightAware Approximate
01:46PM 54.3906 -64.8469 110° East  Level FlightAware Approximate
01:47PM 54.3670 -64.7393 111° Southeast  Level FlightAware Approximate
01:48PM 54.3433 -64.6318 111° Southeast  Level FlightAware Approximate
01:49PM 54.3195 -64.5245 111° Southeast  Level FlightAware Approximate
01:50PM 54.2957 -64.4172 111° Southeast  Level FlightAware Approximate
01:51PM 54.2717 -64.3101 111° Southeast  Level FlightAware Approximate
01:52PM 54.2477 -64.2031 111° Southeast  Level FlightAware Approximate
01:53PM 54.2235 -64.0962 111° Southeast  Level FlightAware Approximate
01:54PM 54.1992 -63.9895 111° Southeast  Level FlightAware Approximate
01:54PM 54.2833 -64.3667 112° Southeast 310 357 21,000  Level Montreal Center
01:55PM 54.1749 -63.8829 111° Southeast  Level FlightAware Approximate
01:55PM 54.2667 -64.2167 101° East 300 345 21,000  Level Montreal Center
01:56PM 54.1505 -63.7764 111° Southeast  Level FlightAware Approximate
01:56PM 54.2333 -64.1167 120° Southeast 300 345 21,000  Level Montreal Center
01:57PM 54.1259 -63.6700 111° Southeast  Level FlightAware Approximate
01:57PM 54.2167 -63.9667 101° East 300 345 21,000  Level Montreal Center
01:58PM 54.1013 -63.5638 112° Southeast  Level FlightAware Approximate
01:58PM 54.1833 -63.8333 113° Southeast 300 345 21,000  Level Montreal Center
01:59PM 54.0766 -63.4576 112° Southeast  Level FlightAware Approximate
01:59PM 54.1500 -63.7000 113° Southeast 300 345 21,000  Level Montreal Center
02:00PM 54.1167 -63.5667 113° Southeast 300 345 21,000  Level Montreal Center
02:01PM 54.0833 -63.4500 116° Southeast 300 345 21,000  Level Montreal Center
02:02PM 54.0500 -63.3000 111° Southeast 300 345 21,000  Level Montreal Center
02:03PM 54.0333 -63.1833 104° East 290 334 21,000  Level Montreal Center
02:04PM 54.0000 -63.0500 113° Southeast 290 334 21,000  Level Montreal Center
02:05PM 53.9500 -62.9167 122° Southeast 290 334 21,000  Level Montreal Center
02:06PM 53.9167 -62.8167 119° Southeast 290 334 21,000  Level Montreal Center
02:07PM 53.8833 -62.6833 113° Southeast 290 334 21,000  Level Montreal Center
02:08PM 53.8500 -62.5500 113° Southeast 290 334 21,000  Level Montreal Center
02:10PM 53.8034 -62.3494 111° Southeast  Level FlightAware Approximate
02:17PM 53.6282 -61.6141 114° Southeast  Level FlightAware Approximate
02:18PM 53.6008 -61.5111 114° Southeast  Level FlightAware Approximate
02:19PM 53.5733 -61.4082 114° Southeast  Level FlightAware Approximate
02:20PM 53.5471 -61.3045 113° Southeast  Level FlightAware Approximate
02:21PM 53.5211 -61.2006 113° Southeast  Level FlightAware Approximate
02:22PM 53.4951 -61.0969 113° Southeast  Level FlightAware Approximate
02:23PM 53.4684 -60.9937 114° Southeast  Level FlightAware Approximate
02:24PM 53.4410 -60.8910 114° Southeast  Level FlightAware Approximate
02:25PM 53.4138 -60.7884 113° Southeast  Level FlightAware Approximate
02:26PM 53.3879 -60.6848 113° Southeast  Level FlightAware Approximate
02:27PM 53.3620 -60.5813 113° Southeast  Level FlightAware Approximate
02:28PM 53.3345 -60.4790 116° Southeast  Level FlightAware Approximate
02:29PM 53.3167 -60.4167 116° Southeast  Level FlightAware Approximate
02:30PM 53.3192 -60.4258 116° Southeast  Level Estimated
02:31PM 53.3167 -60.4167 116° Southeast  Level FlightAware Approximate
02:32PM 53.3192 -60.4258 116° Southeast  Level Estimated
02:33PM 53.3167 -60.4167 116° Southeast  Level FlightAware Approximate
02:34PM 53.3192 -60.4258 116° Southeast  Level Estimated
02:35PM 53.3167 -60.4167 116° Southeast  Level FlightAware Approximate
02:36PM 53.3192 -60.4258 116° Southeast  Level Estimated
02:37PM 53.3167 -60.4167 116° Southeast  Level FlightAware Approximate
02:38PM 53.3192 -60.4258 116° Southeast  Level Estimated
02:39PM 53.3167 -60.4167 116° Southeast  Level FlightAware Approximate
02:40PM 53.3192 -60.4258 116° Southeast  Level Estimated
02:41PM 53.3167 -60.4167 116° Southeast  Level FlightAware Approximate
02:42PM 53.3192 -60.4258 116° Southeast  Level Estimated
02:43PM 53.3167 -60.4167 116° Southeast  Level FlightAware Approximate
02:44PM 53.3192 -60.4258 116° Southeast  Level Estimated